createdAt,value
2022-10-30T00:01:37.396Z,18.48
2022-10-30T00:03:39.333Z,15.18
2022-10-30T00:05:43.311Z,16.30
2022-10-30T00:07:45.121Z,16.63
2022-10-30T00:09:47.068Z,16.10
2022-10-30T00:11:48.886Z,15.27
2022-10-30T00:13:50.827Z,15.18
2022-10-30T00:15:54.078Z,16.42
2022-10-30T00:18:02.786Z,19.83
2022-10-30T00:20:05.427Z,15.35
2022-10-30T00:24:08.376Z,14.38
2022-10-30T00:26:10.263Z,15.32
2022-10-30T00:28:12.269Z,18.90
2022-10-30T00:30:15.655Z,17.17
2022-10-30T00:32:17.568Z,16.45
2022-10-30T00:34:19.718Z,17.00
2022-10-30T00:36:23.148Z,16.40
2022-10-30T00:38:25.028Z,14.25
2022-10-30T00:40:26.899Z,15.73
2022-10-30T00:42:32.671Z,17.52
2022-10-30T00:44:40.858Z,14.68
2022-10-30T00:46:42.893Z,17.10
2022-10-30T00:48:48.688Z,19.08
2022-10-30T00:50:53.676Z,18.77
2022-10-30T00:53:02.128Z,15.43
2022-10-30T00:55:12.183Z,15.65
2022-10-30T00:57:14.164Z,20.63
2022-10-30T00:59:20.924Z,20.98
2022-10-30T01:01:26.315Z,13.02
2022-10-30T01:03:29.881Z,16.23
2022-10-30T01:05:33.862Z,16.67
2022-10-30T01:07:35.708Z,18.17
2022-10-30T01:09:39.863Z,14.23
2022-10-30T01:11:41.939Z,17.02
2022-10-30T01:13:46.079Z,13.80
2022-10-30T01:16:04.619Z,17.75
2022-10-30T01:18:21.502Z,18.17
2022-10-30T01:20:43.244Z,12.45
2022-10-30T01:23:06.321Z,15.90
2022-10-30T01:25:32.928Z,13.90
2022-10-30T01:27:43.929Z,16.52
2022-10-30T01:30:04.719Z,16.60
2022-10-30T01:32:12.424Z,13.03
2022-10-30T01:34:57.631Z,21.90
2022-10-30T01:37:32.900Z,16.90
2022-10-30T01:39:40.132Z,16.52
2022-10-30T01:41:42.230Z,14.55
2022-10-30T01:43:47.801Z,12.77
2022-10-30T01:46:10.944Z,15.20
2022-10-30T01:48:15.954Z,15.93
2022-10-30T01:50:27.687Z,16.67
2022-10-30T01:52:41.671Z,15.98
2022-10-30T01:54:57.910Z,15.88
2022-10-30T01:57:27.557Z,17.83
2022-10-30T01:59:42.147Z,16.15
2022-10-30T02:01:45.242Z,17.55
2022-10-30T02:03:47.948Z,22.92
2022-10-30T02:05:52.542Z,15.05
2022-10-30T02:07:54.820Z,18.42
2022-10-30T02:09:56.999Z,15.93
2022-10-30T02:12:00.726Z,19.63
2022-10-30T02:14:06.536Z,18.48
2022-10-30T02:16:09.530Z,17.30
2022-10-30T02:18:11.436Z,19.00
2022-10-30T02:20:20.690Z,16.73
2022-10-30T02:22:22.824Z,18.00
2022-10-30T02:24:25.743Z,19.63
2022-10-30T02:26:27.510Z,14.98
2022-10-30T02:28:29.359Z,15.90
2022-10-30T02:30:31.487Z,15.60
2022-10-30T02:32:34.110Z,16.50
2022-10-30T02:34:36.981Z,20.60
2022-10-30T02:36:38.799Z,16.95
2022-10-30T02:38:40.650Z,15.65
2022-10-30T02:40:42.613Z,17.10
2022-10-30T02:42:44.623Z,17.90
2022-10-30T02:44:46.477Z,17.85
2022-10-30T02:46:48.367Z,13.88
2022-10-30T02:48:50.467Z,14.95
2022-10-30T02:50:52.348Z,18.80
2022-10-30T02:52:54.375Z,14.02
2022-10-30T02:54:56.270Z,14.85
2022-10-30T02:56:58.194Z,18.45
2022-10-30T02:59:00.057Z,16.38
2022-10-30T03:01:13.780Z,14.50
2022-10-30T03:03:18.651Z,15.43
2022-10-30T03:05:23.741Z,14.52
2022-10-30T03:07:25.543Z,17.33
2022-10-30T03:09:27.468Z,14.70
2022-10-30T03:11:29.325Z,16.55
2022-10-30T03:13:32.710Z,16.50
2022-10-30T03:15:34.502Z,15.88
2022-10-30T03:17:36.504Z,15.20
2022-10-30T03:19:41.199Z,17.92
2022-10-30T03:21:43.121Z,17.00
2022-10-30T03:23:46.302Z,14.80
2022-10-30T03:25:48.195Z,14.95
2022-10-30T03:27:50.072Z,14.23
2022-10-30T03:29:51.965Z,15.13
2022-10-30T03:31:54.752Z,17.63
2022-10-30T03:33:56.544Z,16.38
2022-10-30T03:35:58.839Z,15.65
2022-10-30T03:38:00.694Z,16.60
2022-10-30T03:40:03.796Z,20.00
2022-10-30T03:42:05.826Z,14.25
2022-10-30T03:44:08.722Z,18.92
2022-10-30T03:46:11.608Z,16.15
2022-10-30T03:48:13.474Z,15.77
2022-10-30T03:50:15.394Z,17.13
2022-10-30T03:52:17.242Z,14.70
2022-10-30T03:54:19.164Z,13.55
2022-10-30T03:56:21.045Z,14.80
2022-10-30T03:58:22.863Z,14.63
2022-10-30T04:00:24.872Z,14.10
2022-10-30T04:02:26.803Z,14.95
2022-10-30T04:04:28.709Z,14.85
2022-10-30T04:06:30.634Z,14.18
2022-10-30T04:08:32.564Z,16.70
2022-10-30T04:10:36.520Z,15.93
2022-10-30T04:12:38.906Z,20.13
2022-10-30T04:14:41.826Z,17.65
2022-10-30T04:16:43.706Z,15.45
2022-10-30T04:18:46.568Z,15.88
2022-10-30T04:20:48.676Z,14.23
2022-10-30T04:23:04.114Z,15.57
2022-10-30T04:25:06.495Z,18.58
2022-10-30T04:27:08.567Z,15.80
2022-10-30T04:29:10.754Z,14.07
2022-10-30T04:31:12.591Z,17.30
2022-10-30T04:33:15.756Z,16.58
2022-10-30T04:35:19.656Z,15.43
2022-10-30T04:37:21.537Z,16.58
2022-10-30T04:39:23.436Z,17.42
2022-10-30T04:41:25.449Z,16.27
2022-10-30T04:43:27.428Z,17.35
2022-10-30T04:45:29.421Z,16.00
2022-10-30T04:47:34.239Z,15.60
2022-10-30T04:49:36.192Z,14.85
2022-10-30T04:51:37.999Z,19.88
2022-10-30T04:53:39.955Z,16.95
2022-10-30T04:55:42.649Z,15.93
2022-10-30T04:57:45.802Z,12.80
2022-10-30T04:59:47.718Z,17.02
2022-10-30T05:01:49.689Z,17.63
2022-10-30T05:03:54.730Z,14.85
2022-10-30T05:06:22.204Z,19.13
2022-10-30T05:08:24.141Z,16.08
2022-10-30T05:10:26.099Z,15.52
2022-10-30T05:12:28.964Z,17.17
2022-10-30T05:14:32.515Z,17.33
2022-10-30T05:16:34.554Z,15.13
2022-10-30T05:18:36.491Z,16.77
2022-10-30T05:20:38.344Z,15.63
2022-10-30T05:22:40.184Z,12.80
2022-10-30T05:24:42.098Z,17.23
2022-10-30T05:26:44.238Z,17.42
2022-10-30T05:28:46.192Z,20.30
2022-10-30T05:30:48.039Z,15.18
2022-10-30T05:32:49.807Z,16.13
2022-10-30T05:34:51.721Z,13.75
2022-10-30T05:36:54.608Z,14.77
2022-10-30T05:38:56.488Z,21.48
2022-10-30T05:40:58.411Z,18.42
2022-10-30T05:43:02.015Z,18.27
2022-10-30T05:45:04.295Z,20.58
2022-10-30T05:47:06.390Z,33.13
2022-10-30T05:49:08.442Z,19.33
2022-10-30T05:51:10.310Z,21.25
2022-10-30T05:53:12.444Z,18.92
2022-10-30T05:55:14.380Z,18.27
2022-10-30T05:57:16.233Z,16.40
2022-10-30T05:59:18.352Z,14.35
2022-10-30T06:01:20.284Z,15.90
2022-10-30T06:03:22.195Z,14.88
2022-10-30T06:05:26.176Z,19.00
2022-10-30T06:07:28.114Z,16.83
2022-10-30T06:09:30.130Z,17.98
2022-10-30T06:11:34.042Z,17.67
2022-10-30T06:13:35.903Z,19.23
2022-10-30T06:15:39.791Z,15.10
2022-10-30T06:17:41.539Z,12.38
2022-10-30T06:19:44.016Z,16.30
2022-10-30T06:21:47.028Z,14.75
2022-10-30T06:23:49.177Z,16.52
2022-10-30T06:25:51.021Z,16.85
2022-10-30T06:27:53.168Z,16.65
2022-10-30T06:29:56.004Z,18.83
2022-10-30T06:31:59.792Z,16.35
2022-10-30T06:34:05.823Z,14.57
2022-10-30T06:36:08.927Z,16.30
2022-10-30T06:38:12.197Z,16.52
2022-10-30T06:40:14.586Z,16.40
2022-10-30T06:42:16.487Z,14.05
2022-10-30T06:44:19.613Z,14.10
2022-10-30T06:46:27.067Z,17.73
2022-10-30T06:48:33.623Z,14.82
2022-10-30T06:50:36.516Z,16.23
2022-10-30T06:52:39.690Z,17.33
2022-10-30T06:54:41.563Z,16.98
2022-10-30T06:56:43.467Z,15.27
2022-10-30T06:58:45.356Z,18.33
2022-10-30T07:00:47.272Z,16.85
2022-10-30T07:03:00.508Z,15.60
2022-10-30T07:05:03.321Z,14.65
2022-10-30T07:07:05.153Z,18.70
2022-10-30T07:09:07.241Z,12.32
2022-10-30T07:11:09.157Z,13.18
2022-10-30T07:13:11.040Z,15.10
2022-10-30T07:15:12.838Z,13.93
2022-10-30T07:17:14.731Z,13.88
2022-10-30T07:19:17.782Z,13.65
2022-10-30T07:21:19.741Z,17.35
2022-10-30T07:23:21.727Z,17.58
2022-10-30T07:25:23.838Z,17.67
2022-10-30T07:27:25.653Z,14.65
2022-10-30T07:29:28.469Z,15.40
2022-10-30T07:31:41.883Z,22.05
2022-10-30T07:33:53.054Z,15.40
2022-10-30T07:35:54.852Z,15.45
2022-10-30T07:37:56.885Z,11.60
2022-10-30T07:39:58.752Z,16.10
2022-10-30T07:42:00.652Z,13.10
2022-10-30T07:44:02.552Z,16.67
2022-10-30T07:46:04.578Z,15.35
2022-10-30T07:48:06.547Z,15.15
2022-10-30T07:50:09.089Z,13.60
2022-10-30T07:52:16.221Z,13.57
2022-10-30T07:54:28.602Z,15.32
2022-10-30T07:56:30.531Z,13.52
2022-10-30T07:58:32.490Z,14.85
2022-10-30T08:00:34.514Z,17.02
2022-10-30T08:02:37.333Z,17.52
2022-10-30T08:04:40.395Z,11.80
2022-10-30T08:06:42.405Z,13.38
2022-10-30T08:08:44.313Z,15.07
2022-10-30T08:10:46.233Z,14.02
2022-10-30T08:12:49.141Z,13.82
2022-10-30T08:14:52.540Z,11.82
2022-10-30T08:16:55.442Z,14.57
2022-10-30T08:18:57.398Z,13.15
2022-10-30T08:20:59.248Z,16.05
2022-10-30T08:23:01.622Z,13.95
2022-10-30T08:25:03.996Z,12.48
2022-10-30T08:27:05.947Z,13.60
2022-10-30T08:29:07.896Z,10.60
2022-10-30T08:31:09.910Z,16.05
2022-10-30T08:33:16.665Z,48.30
2022-10-30T08:35:21.731Z,34.05
2022-10-30T08:37:23.712Z,14.55
2022-10-30T08:39:27.582Z,9.63
2022-10-30T08:41:34.276Z,10.65
2022-10-30T08:43:36.338Z,12.00
2022-10-30T08:45:38.461Z,12.50
2022-10-30T08:47:40.369Z,17.90
2022-10-30T08:49:43.275Z,15.40
2022-10-30T08:51:46.238Z,13.73
2022-10-30T08:53:50.135Z,15.95
2022-10-30T08:55:55.826Z,12.65
2022-10-30T08:57:57.918Z,20.23
2022-10-30T08:59:59.979Z,13.52
2022-10-30T09:02:01.865Z,13.05
2022-10-30T09:04:05.017Z,9.90
2022-10-30T09:06:07.336Z,10.98
2022-10-30T09:08:09.311Z,11.27
2022-10-30T09:10:11.199Z,12.90
2022-10-30T09:12:13.146Z,9.70
2022-10-30T09:14:15.074Z,9.32
2022-10-30T09:16:17.174Z,10.88
2022-10-30T09:18:19.533Z,9.27
2022-10-30T09:20:21.400Z,10.48
2022-10-30T09:22:23.451Z,18.25
2022-10-30T09:24:25.483Z,25.83
2022-10-30T09:26:30.388Z,12.90
2022-10-30T09:28:33.369Z,10.00
2022-10-30T09:30:35.387Z,12.52
2022-10-30T09:32:42.971Z,11.32
2022-10-30T09:34:49.622Z,9.73
2022-10-30T09:36:59.572Z,9.35
2022-10-30T09:39:02.509Z,9.30
2022-10-30T09:41:30.966Z,11.00
2022-10-30T09:43:54.575Z,8.98
2022-10-30T09:46:22.342Z,16.15
2022-10-30T09:48:47.975Z,10.20
2022-10-30T09:51:22.071Z,11.30
2022-10-30T09:53:52.633Z,10.27
2022-10-30T09:56:14.917Z,10.40
2022-10-30T09:58:24.631Z,9.45
2022-10-30T10:01:07.356Z,9.68
2022-10-30T10:03:31.604Z,11.70
2022-10-30T10:05:45.080Z,14.63
2022-10-30T10:08:10.533Z,11.32
2022-10-30T10:10:37.722Z,8.30
2022-10-30T10:12:48.391Z,10.55
2022-10-30T10:14:51.391Z,11.03
2022-10-30T10:16:55.610Z,26.08
2022-10-30T10:19:09.235Z,13.15
2022-10-30T10:21:19.143Z,17.35
2022-10-30T10:23:32.599Z,12.48
2022-10-30T10:25:37.344Z,13.45
2022-10-30T10:27:45.264Z,10.25
2022-10-30T10:29:50.014Z,15.20
2022-10-30T10:32:11.203Z,9.75
2022-10-30T10:34:28.970Z,10.50
2022-10-30T10:36:48.534Z,17.05
2022-10-30T10:39:26.109Z,7.28
2022-10-30T10:41:53.602Z,9.05
2022-10-30T10:44:08.510Z,26.75
2022-10-30T10:46:13.216Z,26.15
2022-10-30T10:48:29.336Z,14.95
2022-10-30T10:50:47.466Z,11.75
2022-10-30T10:53:22.117Z,11.05
2022-10-30T10:55:28.958Z,19.85
2022-10-30T10:57:36.953Z,12.98
2022-10-30T10:59:43.999Z,9.10
2022-10-30T11:02:08.989Z,29.60
2022-10-30T11:04:40.012Z,10.40
2022-10-30T11:06:46.978Z,12.97
2022-10-30T11:08:49.913Z,8.95
2022-10-30T11:11:06.974Z,17.08
2022-10-30T11:13:14.816Z,14.25
2022-10-30T11:15:36.346Z,9.32
2022-10-30T11:19:54.362Z,25.65
2022-10-30T11:21:57.791Z,7.22
2022-10-30T11:23:59.761Z,10.70
2022-10-30T11:26:03.075Z,7.68
2022-10-30T11:28:06.156Z,13.05
2022-10-30T11:30:18.915Z,9.32
2022-10-30T11:32:23.111Z,17.02
2022-10-30T11:34:31.822Z,28.50
2022-10-30T11:36:36.391Z,12.90
2022-10-30T11:38:38.618Z,9.30
2022-10-30T11:40:48.791Z,9.02
2022-10-30T11:42:56.526Z,16.13
2022-10-30T11:44:58.801Z,7.03
2022-10-30T11:47:01.530Z,6.53
2022-10-30T11:49:03.693Z,9.07
2022-10-30T11:51:06.426Z,19.50
2022-10-30T11:53:17.995Z,8.18
2022-10-30T11:55:27.136Z,16.00
2022-10-30T11:57:35.911Z,23.63
2022-10-30T11:59:37.949Z,18.77
2022-10-30T12:01:57.515Z,15.05
2022-10-30T12:04:23.599Z,8.43
2022-10-30T12:06:29.502Z,6.82
2022-10-30T12:08:31.361Z,8.32
2022-10-30T12:10:44.382Z,8.18
2022-10-30T12:12:51.007Z,7.63
2022-10-30T12:14:54.106Z,5.72
2022-10-30T12:16:57.566Z,4.45
2022-10-30T12:19:15.619Z,6.75
2022-10-30T12:21:20.330Z,6.28
2022-10-30T12:23:26.916Z,16.85
2022-10-30T12:25:31.102Z,6.22
2022-10-30T12:27:37.487Z,6.57
2022-10-30T12:30:14.889Z,6.95
2022-10-30T12:32:20.271Z,6.22
2022-10-30T12:34:46.411Z,15.00
2022-10-30T12:37:00.452Z,4.03
2022-10-30T12:39:15.477Z,7.20
2022-10-30T12:41:40.859Z,5.43
2022-10-30T12:43:51.666Z,5.50
2022-10-30T12:46:04.176Z,5.43
2022-10-30T12:48:42.053Z,6.22
2022-10-30T12:50:57.573Z,8.43
2022-10-30T12:53:20.944Z,5.97
2022-10-30T12:55:40.152Z,7.55
2022-10-30T12:57:57.417Z,5.13
2022-10-30T13:00:05.346Z,5.10
2022-10-30T13:02:21.104Z,6.78
2022-10-30T13:04:29.475Z,5.43
2022-10-30T13:06:35.704Z,7.05
2022-10-30T13:08:47.166Z,6.22
2022-10-30T13:11:19.764Z,1.95
2022-10-30T13:13:37.239Z,3.47
2022-10-30T13:15:48.783Z,3.42
2022-10-30T13:17:51.139Z,2.65
2022-10-30T13:19:52.995Z,2.15
2022-10-30T13:22:15.946Z,2.75
2022-10-30T13:24:44.286Z,2.88
2022-10-30T13:27:22.361Z,2.15
2022-10-30T13:29:40.397Z,6.15
2022-10-30T13:31:54.464Z,7.03
2022-10-30T13:34:17.982Z,9.25
2022-10-30T13:36:23.443Z,7.80
2022-10-30T13:38:30.772Z,6.38
2022-10-30T13:40:40.147Z,8.70
2022-10-30T13:42:47.575Z,14.85
2022-10-30T13:45:20.100Z,5.78
2022-10-30T13:47:33.983Z,6.68
2022-10-30T13:49:35.775Z,7.25
2022-10-30T13:51:43.609Z,6.25
2022-10-30T13:53:49.121Z,11.27
2022-10-30T13:55:51.427Z,7.82
2022-10-30T13:58:15.147Z,7.95
2022-10-30T14:00:59.683Z,9.45
2022-10-30T14:03:31.862Z,7.75
2022-10-30T14:05:58.116Z,8.50
2022-10-30T14:08:22.053Z,10.15
2022-10-30T14:10:47.913Z,9.77
2022-10-30T14:12:53.368Z,9.85
2022-10-30T14:14:56.403Z,11.40
2022-10-30T14:17:25.371Z,7.18
2022-10-30T14:19:27.886Z,17.70
2022-10-30T14:21:31.922Z,37.92
2022-10-30T14:23:38.086Z,22.48
2022-10-30T14:25:40.379Z,14.52
2022-10-30T14:27:43.082Z,15.88
2022-10-30T14:29:48.172Z,17.58
2022-10-30T14:31:50.184Z,19.92
2022-10-30T14:33:55.979Z,17.85
2022-10-30T14:36:25.355Z,18.25
2022-10-30T14:38:35.239Z,16.98
2022-10-30T14:40:56.510Z,17.65
2022-10-30T14:43:06.508Z,16.15
2022-10-30T14:45:17.136Z,14.75
2022-10-30T14:47:42.024Z,20.87
2022-10-30T14:49:48.663Z,15.15
2022-10-30T14:52:00.179Z,14.52
2022-10-30T14:56:46.872Z,14.32
2022-10-30T14:59:17.295Z,15.38
2022-10-30T15:01:42.058Z,10.00
2022-10-30T15:04:13.291Z,14.88
2022-10-30T15:06:40.420Z,16.35
2022-10-30T15:08:58.590Z,13.00
2022-10-30T15:11:17.820Z,13.27
2022-10-30T15:13:23.230Z,13.93
2022-10-30T15:15:25.660Z,11.95
2022-10-30T15:17:37.048Z,10.82
2022-10-30T15:21:46.027Z,12.50
2022-10-30T15:23:48.069Z,11.98
2022-10-30T15:25:54.200Z,10.07
2022-10-30T15:27:58.700Z,13.02
2022-10-30T15:30:04.615Z,14.27
2022-10-30T15:32:18.235Z,11.93
2022-10-30T15:34:23.356Z,14.55
2022-10-30T15:36:29.279Z,9.98
2022-10-30T15:38:31.175Z,12.07
2022-10-30T15:40:38.808Z,10.43
2022-10-30T15:42:41.117Z,11.15
2022-10-30T15:44:45.887Z,9.57
2022-10-30T15:46:53.215Z,12.77
2022-10-30T15:48:55.198Z,17.13
2022-10-30T15:51:15.620Z,16.20
2022-10-30T15:53:24.820Z,17.00
2022-10-30T15:55:30.131Z,14.68
2022-10-30T15:58:00.927Z,14.77
2022-10-30T16:02:27.363Z,21.80
2022-10-30T16:04:35.720Z,19.80
2022-10-30T16:06:39.052Z,17.77
2022-10-30T16:08:48.449Z,15.65
2022-10-30T16:10:58.201Z,17.63
2022-10-30T16:13:01.452Z,20.45
2022-10-30T16:15:17.590Z,26.35
2022-10-30T16:17:19.842Z,21.45
2022-10-30T16:19:29.172Z,23.25
2022-10-30T16:21:32.881Z,25.15
2022-10-30T16:23:46.987Z,20.73
2022-10-30T16:25:57.065Z,22.15
2022-10-30T16:27:59.559Z,29.67
2022-10-30T16:30:02.584Z,28.40
2022-10-30T16:34:26.024Z,22.73
2022-10-30T16:36:28.218Z,36.22
2022-10-30T16:38:37.291Z,31.13
2022-10-30T16:40:40.345Z,27.08
2022-10-30T16:42:49.651Z,33.75
2022-10-30T16:44:54.002Z,28.70
2022-10-30T16:46:58.013Z,32.20
2022-10-30T16:49:03.900Z,30.70
2022-10-30T16:51:07.154Z,34.90
2022-10-30T16:53:18.103Z,35.30
2022-10-30T16:55:22.797Z,28.60
2022-10-30T16:57:29.305Z,34.35
2022-10-30T16:59:44.313Z,31.88
2022-10-30T17:01:52.836Z,24.60
2022-10-30T17:03:56.530Z,24.90
2022-10-30T17:06:04.848Z,20.88
2022-10-30T17:08:31.426Z,22.77
2022-10-30T17:10:43.725Z,20.23
2022-10-30T17:12:47.144Z,20.77
2022-10-30T17:14:53.491Z,18.92
2022-10-30T17:17:02.290Z,22.08
2022-10-30T17:19:29.507Z,26.67
2022-10-30T17:21:42.327Z,21.27
2022-10-30T17:24:00.885Z,21.00
2022-10-30T17:26:11.998Z,17.55
2022-10-30T17:28:40.991Z,14.75
2022-10-30T17:30:44.166Z,18.85
2022-10-30T17:32:47.338Z,30.75
2022-10-30T17:35:02.004Z,31.73
2022-10-30T17:37:04.389Z,30.17
2022-10-30T17:39:08.398Z,27.70
2022-10-30T17:41:14.713Z,19.52
2022-10-30T17:43:16.960Z,25.08
2022-10-30T17:45:19.216Z,21.13
2022-10-30T17:47:21.383Z,22.42
2022-10-30T17:49:28.241Z,28.13
2022-10-30T17:51:32.412Z,25.15
2022-10-30T17:53:34.668Z,31.75
2022-10-30T17:55:38.948Z,25.20
2022-10-30T17:57:41.885Z,27.70
2022-10-30T17:59:44.128Z,35.30
2022-10-30T18:01:49.649Z,30.73
2022-10-30T18:03:53.593Z,28.63
2022-10-30T18:05:56.235Z,26.80
2022-10-30T18:08:00.599Z,28.58
2022-10-30T18:10:03.000Z,30.63
2022-10-30T18:12:06.910Z,21.67
2022-10-30T18:14:12.787Z,29.30
2022-10-30T18:16:20.366Z,29.60
2022-10-30T18:18:22.730Z,23.33
2022-10-30T18:20:27.495Z,34.35
2022-10-30T18:22:30.300Z,33.78
2022-10-30T18:24:32.723Z,31.05
2022-10-30T18:26:40.058Z,35.72
2022-10-30T18:28:43.103Z,33.97
2022-10-30T18:30:51.353Z,36.60
2022-10-30T18:32:53.597Z,40.70
2022-10-30T18:34:56.522Z,38.22
2022-10-30T18:36:58.684Z,36.53
2022-10-30T18:39:00.618Z,51.95
2022-10-30T18:41:03.867Z,36.60
2022-10-30T18:43:06.116Z,38.22
2022-10-30T18:45:21.632Z,31.95
2022-10-30T18:47:24.068Z,44.45
2022-10-30T18:49:29.456Z,40.92
2022-10-30T18:51:32.033Z,37.60
2022-10-30T18:53:35.893Z,36.38
2022-10-30T18:55:40.510Z,43.95
2022-10-30T18:57:42.728Z,41.22
2022-10-30T18:59:45.051Z,32.78
2022-10-30T19:01:51.247Z,47.03
2022-10-30T19:03:53.674Z,40.75
2022-10-30T19:05:55.837Z,41.47
2022-10-30T19:08:10.034Z,50.63
2022-10-30T19:10:18.736Z,55.22
2022-10-30T19:12:21.222Z,64.72
2022-10-30T19:14:25.125Z,50.92
2022-10-30T19:16:28.013Z,54.03
2022-10-30T19:18:31.969Z,51.08
2022-10-30T19:20:58.402Z,48.03
2022-10-30T19:23:06.358Z,44.58
2022-10-30T19:25:19.705Z,42.50
2022-10-30T19:27:25.917Z,35.92
2022-10-30T19:29:29.132Z,49.03
2022-10-30T19:31:32.568Z,49.33
2022-10-30T19:33:38.108Z,48.25
2022-10-30T19:35:40.821Z,58.08
2022-10-30T19:37:43.951Z,61.55
2022-10-30T19:39:55.404Z,56.30
2022-10-30T19:44:00.155Z,57.65
2022-10-30T19:46:16.009Z,45.80
2022-10-30T19:50:47.780Z,64.85
2022-10-30T19:52:52.723Z,54.35
2022-10-30T19:54:59.292Z,64.38
2022-10-30T19:57:13.972Z,70.05
2022-10-30T19:59:31.170Z,64.43
2022-10-30T20:01:35.727Z,47.78
2022-10-30T20:03:48.501Z,49.45
2022-10-30T20:05:56.501Z,58.38
2022-10-30T20:08:06.251Z,50.15
2022-10-30T20:10:20.028Z,52.22
2022-10-30T20:12:23.330Z,53.85
2022-10-30T20:14:30.543Z,59.03
2022-10-30T20:16:35.181Z,53.17
2022-10-30T20:18:37.746Z,52.25
2022-10-30T20:20:48.353Z,57.92
2022-10-30T20:22:51.146Z,65.63
2022-10-30T20:24:53.228Z,72.50
2022-10-30T20:27:01.430Z,66.40
2022-10-30T20:29:17.035Z,65.85
2022-10-30T20:31:23.153Z,66.82
2022-10-30T20:33:28.019Z,73.10
2022-10-30T20:35:30.207Z,77.15
2022-10-30T20:37:32.557Z,67.07
2022-10-30T20:39:34.926Z,73.82
2022-10-30T20:41:40.633Z,83.53
2022-10-30T20:43:42.804Z,76.45
2022-10-30T20:45:45.119Z,75.88
2022-10-30T20:47:48.098Z,71.63
2022-10-30T20:49:50.047Z,82.22
2022-10-30T20:51:52.415Z,84.88
2022-10-30T20:53:54.663Z,76.43
2022-10-30T20:55:57.029Z,70.65
2022-10-30T20:57:59.607Z,68.93
2022-10-30T21:00:01.952Z,69.47
2022-10-30T21:02:07.075Z,73.38
2022-10-30T21:04:09.374Z,67.70
2022-10-30T21:06:11.308Z,71.35
2022-10-30T21:08:14.917Z,70.03
2022-10-30T21:10:17.328Z,76.53
2022-10-30T21:12:20.844Z,89.20
2022-10-30T21:14:25.922Z,78.95
2022-10-30T21:16:31.201Z,75.93
2022-10-30T21:18:33.694Z,78.75
2022-10-30T21:20:37.691Z,74.95
2022-10-30T21:22:43.158Z,73.38
2022-10-30T21:24:48.484Z,63.22
2022-10-30T21:26:50.833Z,63.13
2022-10-30T21:29:00.447Z,68.65
2022-10-30T21:31:18.387Z,66.70
2022-10-30T21:33:20.475Z,60.78
2022-10-30T21:35:22.631Z,59.90
2022-10-30T21:37:29.153Z,60.30
2022-10-30T21:39:38.032Z,56.22
2022-10-30T21:41:40.118Z,58.63
2022-10-30T21:43:42.736Z,55.70
2022-10-30T21:46:03.363Z,64.00
2022-10-30T21:48:09.039Z,61.33
2022-10-30T21:50:12.896Z,53.75
2022-10-30T21:52:15.058Z,57.83
2022-10-30T21:54:18.663Z,54.55
2022-10-30T21:56:28.556Z,52.30
2022-10-30T21:58:30.827Z,47.17
2022-10-30T22:00:33.786Z,46.35
2022-10-30T22:02:38.163Z,48.63
2022-10-30T22:04:47.192Z,47.78
2022-10-30T22:06:51.402Z,48.45
2022-10-30T22:08:54.680Z,47.47
2022-10-30T22:10:56.492Z,45.65
2022-10-30T22:12:58.332Z,45.75
2022-10-30T22:15:11.956Z,48.53
2022-10-30T22:17:21.053Z,44.45
2022-10-30T22:19:34.809Z,44.30
2022-10-30T22:21:42.445Z,42.95
2022-10-30T22:23:48.765Z,46.35
2022-10-30T22:26:00.267Z,47.40
2022-10-30T22:30:09.174Z,42.13
2022-10-30T22:32:11.200Z,41.00
2022-10-30T22:34:22.298Z,39.63
2022-10-30T22:36:32.260Z,39.90
2022-10-30T22:38:37.385Z,41.10
2022-10-30T22:40:43.221Z,40.15
2022-10-30T22:42:48.103Z,42.88
2022-10-30T22:45:02.320Z,37.33
2022-10-30T22:47:14.801Z,35.80
2022-10-30T22:49:19.345Z,28.63
2022-10-30T22:51:32.528Z,35.08
2022-10-30T22:53:35.988Z,37.03
2022-10-30T22:55:48.159Z,39.97
2022-10-30T23:00:34.129Z,30.48
2022-10-30T23:02:36.127Z,35.15
2022-10-30T23:04:39.132Z,38.30
2022-10-30T23:06:41.451Z,39.70
2022-10-30T23:08:43.439Z,34.58
2022-10-30T23:10:51.993Z,33.25
2022-10-30T23:13:02.154Z,29.55
2022-10-30T23:15:15.616Z,34.65
2022-10-30T23:17:18.610Z,31.27
2022-10-30T23:19:20.409Z,34.42
2022-10-30T23:21:32.840Z,30.08
2022-10-30T23:23:46.907Z,27.42
2022-10-30T23:25:48.839Z,34.92
2022-10-30T23:27:53.161Z,36.80
2022-10-30T23:29:55.061Z,39.75
2022-10-30T23:31:57.024Z,32.88
2022-10-30T23:34:07.520Z,32.22
2022-10-30T23:36:18.893Z,35.90
2022-10-30T23:38:23.606Z,29.95
2022-10-30T23:40:25.486Z,25.85
2022-10-30T23:42:27.405Z,25.70
2022-10-30T23:44:29.316Z,28.27
2022-10-30T23:46:31.260Z,32.58
2022-10-30T23:48:33.139Z,28.65
2022-10-30T23:50:36.099Z,30.58
2022-10-30T23:52:37.983Z,31.50
2022-10-30T23:54:39.803Z,41.17
2022-10-30T23:56:41.802Z,36.15
2022-10-30T23:58:45.205Z,36.35
